createdAt,value
2023-01-11T00:03:33.402Z,100.00
2023-01-11T00:06:20.520Z,100.00
2023-01-11T00:09:07.720Z,100.00
2023-01-11T00:11:55.281Z,100.00
2023-01-11T00:14:42.455Z,100.00
2023-01-11T00:17:29.847Z,100.00
2023-01-11T00:20:17.792Z,100.00
2023-01-11T00:23:05.023Z,100.00
2023-01-11T00:25:52.101Z,100.00
2023-01-11T00:28:39.355Z,100.00
2023-01-11T00:31:26.480Z,100.00
2023-01-11T00:34:15.127Z,100.00
2023-01-11T00:37:04.220Z,100.00
2023-01-11T00:39:52.510Z,100.00
2023-01-11T00:42:58.413Z,100.00
2023-01-11T00:46:04.059Z,100.00
2023-01-11T00:48:51.081Z,100.00
2023-01-11T00:51:38.052Z,100.00
2023-01-11T00:54:25.201Z,100.00
2023-01-11T00:57:12.214Z,100.00
2023-01-11T00:59:59.272Z,100.00
2023-01-11T01:02:46.955Z,100.00
2023-01-11T01:05:34.054Z,100.00
2023-01-11T01:08:21.059Z,100.00
2023-01-11T01:11:08.271Z,100.00
2023-01-11T01:14:13.885Z,100.00
2023-01-11T01:17:04.329Z,100.00
2023-01-11T01:19:51.374Z,100.00
2023-01-11T01:22:38.534Z,100.00
2023-01-11T01:25:25.670Z,100.00
2023-01-11T01:28:12.735Z,100.00
2023-01-11T01:30:59.984Z,100.00
2023-01-11T01:33:47.068Z,100.00
2023-01-11T01:36:34.046Z,100.00
2023-01-11T01:39:21.964Z,100.00
2023-01-11T01:42:15.138Z,100.00
2023-01-11T01:45:24.026Z,100.00
2023-01-11T01:48:17.624Z,100.00
2023-01-11T01:51:07.384Z,100.00
2023-01-11T01:53:58.556Z,100.00
2023-01-11T01:56:51.701Z,100.00
2023-01-11T01:59:38.928Z,100.00
2023-01-11T02:02:26.660Z,100.00
2023-01-11T02:05:15.937Z,100.00
2023-01-11T02:08:08.033Z,100.00
2023-01-11T02:10:56.014Z,100.00
2023-01-11T02:13:46.295Z,100.00
2023-01-11T02:16:33.884Z,100.00
2023-01-11T02:19:49.821Z,100.00
2023-01-11T02:23:01.201Z,100.00
2023-01-11T02:26:19.065Z,100.00
2023-01-11T02:29:40.395Z,100.00
2023-01-11T02:32:45.312Z,100.00
2023-01-11T02:35:56.350Z,100.00
2023-01-11T02:38:53.311Z,100.00
2023-01-11T02:42:17.378Z,100.00
2023-01-11T02:45:26.372Z,100.00
2023-01-11T02:48:43.178Z,100.00
2023-01-11T02:51:43.917Z,100.00
2023-01-11T02:54:38.140Z,100.00
2023-01-11T02:57:29.659Z,100.00
2023-01-11T03:00:19.311Z,100.00
2023-01-11T03:03:14.766Z,100.00
2023-01-11T03:06:08.796Z,100.00
2023-01-11T03:08:58.774Z,100.00
2023-01-11T03:12:49.303Z,100.00
2023-01-11T03:15:42.317Z,100.00
2023-01-11T03:18:47.337Z,100.00
2023-01-11T03:21:51.474Z,100.00
2023-01-11T03:24:50.275Z,100.00
2023-01-11T03:27:53.630Z,100.00
2023-01-11T03:30:47.048Z,100.00
2023-01-11T03:33:39.835Z,100.00
2023-01-11T03:36:55.184Z,100.00
2023-01-11T03:39:50.516Z,100.00
2023-01-11T03:43:02.313Z,100.00
2023-01-11T03:46:04.019Z,100.00
2023-01-11T03:48:55.810Z,100.00
2023-01-11T03:51:44.801Z,100.00
2023-01-11T03:54:33.836Z,100.00
2023-01-11T03:57:29.454Z,100.00
2023-01-11T04:00:18.905Z,100.00
2023-01-11T04:03:06.253Z,100.00
2023-01-11T04:05:55.198Z,100.00
2023-01-11T04:08:42.269Z,100.00
2023-01-11T04:11:29.263Z,100.00
2023-01-11T04:14:16.324Z,100.00
2023-01-11T04:17:04.059Z,100.00
2023-01-11T04:19:51.108Z,100.00
2023-01-11T04:22:38.194Z,100.00
2023-01-11T04:25:25.412Z,100.00
2023-01-11T04:28:12.505Z,100.00
2023-01-11T04:30:59.472Z,100.00
2023-01-11T04:33:46.517Z,100.00
2023-01-11T04:36:33.776Z,100.00
2023-01-11T04:39:20.934Z,100.00
2023-01-11T04:42:20.204Z,100.00
2023-01-11T04:45:07.669Z,100.00
2023-01-11T04:47:56.760Z,100.00
2023-01-11T04:50:43.792Z,100.00
2023-01-11T04:53:30.872Z,100.00
2023-01-11T04:56:18.528Z,100.00
2023-01-11T04:59:05.602Z,100.00
2023-01-11T05:01:52.755Z,100.00
2023-01-11T05:04:39.991Z,100.00
2023-01-11T05:07:27.034Z,100.00
2023-01-11T05:10:14.185Z,100.00
2023-01-11T05:13:01.228Z,100.00
2023-01-11T05:15:48.344Z,100.00
2023-01-11T05:18:36.144Z,100.00
2023-01-11T05:21:25.674Z,100.00
2023-01-11T05:24:14.891Z,100.00
2023-01-11T05:27:02.302Z,100.00
2023-01-11T05:29:49.401Z,100.00
2023-01-11T05:32:36.415Z,100.00
2023-01-11T05:35:23.816Z,100.00
2023-01-11T05:38:10.899Z,100.00
2023-01-11T05:41:05.197Z,100.00
2023-01-11T05:44:12.304Z,100.00
2023-01-11T05:46:59.854Z,100.00
2023-01-11T05:49:46.895Z,100.00
2023-01-11T05:52:33.997Z,100.00
2023-01-11T05:55:21.083Z,100.00
2023-01-11T05:58:08.121Z,100.00
2023-01-11T06:00:56.586Z,100.00
2023-01-11T06:03:44.334Z,100.00
2023-01-11T06:06:32.815Z,100.00
2023-01-11T06:09:19.919Z,100.00
2023-01-11T06:12:07.245Z,100.00
2023-01-11T06:14:54.287Z,100.00
2023-01-11T06:17:41.396Z,100.00
2023-01-11T06:20:28.467Z,100.00
2023-01-11T06:23:15.534Z,100.00
2023-01-11T06:26:10.098Z,100.00
2023-01-11T06:28:57.183Z,100.00
2023-01-11T06:31:44.401Z,100.00
2023-01-11T06:34:31.483Z,100.00
2023-01-11T06:37:18.538Z,100.00
2023-01-11T06:40:06.338Z,100.00
2023-01-11T06:42:53.442Z,100.00
2023-01-11T06:45:41.290Z,100.00
2023-01-11T06:48:28.688Z,100.00
2023-01-11T06:51:16.530Z,100.00
2023-01-11T06:54:03.836Z,100.00
2023-01-11T06:56:51.174Z,100.00
2023-01-11T06:59:39.676Z,100.00
2023-01-11T07:02:26.939Z,100.00
2023-01-11T07:05:14.873Z,100.00
2023-01-11T07:08:02.732Z,100.00
2023-01-11T07:10:49.899Z,100.00
2023-01-11T07:13:36.942Z,100.00
2023-01-11T07:16:24.049Z,100.00
2023-01-11T07:19:11.128Z,100.00
2023-01-11T07:21:58.214Z,100.00
2023-01-11T07:24:47.040Z,100.00
2023-01-11T07:27:35.341Z,100.00
2023-01-11T07:30:22.434Z,100.00
2023-01-11T07:33:10.794Z,100.00
2023-01-11T07:36:00.738Z,100.00
2023-01-11T07:38:47.859Z,100.00
2023-01-11T07:41:53.895Z,100.00
2023-01-11T07:44:40.940Z,100.00
2023-01-11T07:47:28.145Z,100.00
2023-01-11T07:50:17.102Z,100.00
2023-01-11T07:53:04.296Z,100.00
2023-01-11T07:55:51.530Z,100.00
2023-01-11T07:58:38.676Z,100.00
2023-01-11T08:01:25.794Z,100.00
2023-01-11T08:04:14.296Z,100.00
2023-01-11T08:07:03.243Z,100.00
2023-01-11T08:09:50.317Z,100.00
2023-01-11T08:13:06.362Z,100.00
2023-01-11T08:15:53.376Z,100.00
2023-01-11T08:18:40.456Z,100.00
2023-01-11T08:21:28.442Z,100.00
2023-01-11T08:24:15.646Z,100.00
2023-01-11T08:27:04.460Z,100.00
2023-01-11T08:29:51.672Z,100.00
2023-01-11T08:32:38.752Z,100.00
2023-01-11T08:35:26.076Z,100.00
2023-01-11T08:38:13.183Z,100.00
2023-01-11T08:41:03.269Z,100.00
2023-01-11T08:43:50.471Z,100.00
2023-01-11T08:46:38.192Z,100.00
2023-01-11T08:49:25.349Z,100.00
2023-01-11T08:52:16.798Z,100.00
2023-01-11T08:55:07.711Z,100.00
2023-01-11T08:57:57.089Z,100.00
2023-01-11T09:00:45.123Z,100.00
2023-01-11T09:03:32.302Z,100.00
2023-01-11T09:06:19.391Z,100.00
2023-01-11T09:09:06.511Z,100.00
2023-01-11T09:12:04.766Z,100.00
2023-01-11T09:14:52.612Z,100.00
2023-01-11T09:17:39.706Z,100.00
2023-01-11T09:20:26.922Z,100.00
2023-01-11T09:23:14.001Z,100.00
2023-01-11T09:26:01.076Z,100.00
2023-01-11T09:28:48.178Z,100.00
2023-01-11T09:31:35.411Z,100.00
2023-01-11T09:34:22.571Z,100.00
2023-01-11T09:37:09.640Z,100.00
2023-01-11T09:39:59.616Z,100.00
2023-01-11T09:42:51.591Z,100.00
2023-01-11T09:45:46.781Z,100.00
2023-01-11T09:48:44.755Z,100.00
2023-01-11T09:51:39.654Z,100.00
2023-01-11T09:54:27.636Z,100.00
2023-01-11T10:00:28.895Z,100.00
2023-01-11T10:03:49.962Z,100.00
2023-01-11T10:06:51.847Z,100.00
2023-01-11T10:18:33.344Z,100.00
2023-01-11T10:20:35.613Z,100.00
2023-01-11T10:23:32.267Z,100.00
2023-01-11T10:26:32.562Z,100.00
2023-01-11T10:29:53.532Z,100.00
2023-01-11T10:33:14.619Z,100.00
2023-01-11T10:36:18.590Z,100.00
2023-01-11T10:39:33.869Z,100.00
2023-01-11T10:42:28.847Z,100.00
2023-01-11T10:45:21.109Z,100.00
2023-01-11T10:48:19.088Z,100.00
2023-01-11T10:51:32.287Z,100.00
2023-01-11T10:54:30.123Z,100.00
2023-01-11T10:58:01.818Z,100.00
2023-01-11T11:01:08.771Z,100.00
2023-01-11T11:04:26.913Z,100.00
2023-01-11T11:07:25.983Z,100.00
2023-01-11T11:10:36.906Z,100.00
2023-01-11T11:13:29.225Z,100.00
2023-01-11T11:16:22.601Z,100.00
2023-01-11T11:19:17.196Z,100.00
2023-01-11T11:22:04.379Z,100.00
2023-01-11T11:25:05.116Z,100.00
2023-01-11T11:27:58.551Z,100.00
2023-01-11T11:30:47.242Z,100.00
2023-01-11T11:33:41.434Z,100.00
2023-01-11T11:36:43.699Z,100.00
2023-01-11T11:39:31.716Z,100.00
2023-01-11T11:42:21.577Z,100.00
2023-01-11T11:45:11.624Z,100.00
2023-01-11T11:48:05.275Z,100.00
2023-01-11T11:50:55.770Z,100.00
2023-01-11T11:54:03.282Z,100.00
2023-01-11T11:56:50.989Z,100.00
2023-01-11T11:59:38.162Z,100.00
2023-01-11T12:02:31.956Z,100.00
2023-01-11T12:05:19.791Z,100.00
2023-01-11T12:08:06.952Z,98.79
2023-01-11T12:11:05.808Z,99.19
2023-01-11T12:14:04.167Z,98.79
2023-01-11T12:16:51.386Z,100.00
2023-01-11T12:19:45.937Z,97.95
2023-01-11T12:22:32.994Z,96.83
2023-01-11T12:25:26.775Z,98.19
2023-01-11T12:28:31.234Z,99.36
2023-01-11T12:31:43.713Z,97.92
2023-01-11T12:35:14.021Z,96.80
2023-01-11T12:38:24.544Z,95.68
2023-01-11T12:41:45.390Z,96.35
2023-01-11T12:45:20.390Z,93.75
2023-01-11T12:48:27.596Z,95.52
2023-01-11T12:51:30.136Z,97.05
2023-01-11T12:54:39.502Z,97.19
2023-01-11T12:57:37.584Z,96.66
2023-01-11T13:00:49.093Z,100.00
2023-01-11T13:03:41.826Z,98.32
2023-01-11T13:06:41.123Z,100.00
2023-01-11T13:10:05.701Z,100.00
2023-01-11T13:13:06.019Z,100.00
2023-01-11T13:16:21.686Z,100.00
2023-01-11T13:19:21.456Z,100.00
2023-01-11T13:22:16.258Z,100.00
2023-01-11T13:25:12.724Z,100.00
2023-01-11T13:28:05.057Z,100.00
2023-01-11T13:30:54.099Z,100.00
2023-01-11T13:33:47.900Z,100.00
2023-01-11T13:36:45.841Z,100.00
2023-01-11T13:39:43.514Z,100.00
2023-01-11T13:42:56.724Z,100.00
2023-01-11T13:45:59.255Z,100.00
2023-01-11T13:49:12.299Z,100.00
2023-01-11T13:52:04.296Z,100.00
2023-01-11T13:55:14.423Z,100.00
2023-01-11T13:58:15.517Z,100.00
2023-01-11T14:01:14.478Z,100.00
2023-01-11T14:04:11.582Z,100.00
2023-01-11T14:06:58.612Z,100.00
2023-01-11T14:09:54.096Z,100.00
2023-01-11T14:12:59.221Z,100.00
2023-01-11T14:16:00.271Z,100.00
2023-01-11T14:19:08.979Z,100.00
2023-01-11T14:22:26.748Z,100.00
2023-01-11T14:25:30.900Z,100.00
2023-01-11T14:28:17.982Z,100.00
2023-01-11T14:31:15.565Z,100.00
2023-01-11T14:34:35.893Z,100.00
2023-01-11T14:37:58.335Z,100.00
2023-01-11T14:41:03.970Z,100.00
2023-01-11T14:43:59.927Z,100.00
2023-01-11T14:46:51.909Z,100.00
2023-01-11T14:50:25.186Z,100.00
2023-01-11T14:53:19.481Z,100.00
2023-01-11T14:56:37.024Z,100.00
2023-01-11T14:59:38.823Z,100.00
2023-01-11T15:02:27.846Z,100.00
2023-01-11T15:05:31.222Z,100.00
2023-01-11T15:08:27.424Z,100.00
2023-01-11T15:11:22.631Z,100.00
2023-01-11T15:14:24.898Z,100.00
2023-01-11T15:17:37.247Z,100.00
2023-01-11T15:20:25.208Z,100.00
2023-01-11T15:23:18.269Z,100.00
2023-01-11T15:26:11.160Z,100.00
2023-01-11T15:29:00.634Z,100.00
2023-01-11T15:31:53.640Z,100.00
2023-01-11T15:34:46.862Z,100.00
2023-01-11T15:38:00.797Z,100.00
2023-01-11T15:40:50.281Z,100.00
2023-01-11T15:44:04.283Z,100.00
2023-01-11T15:47:15.414Z,100.00
2023-01-11T15:50:51.905Z,100.00
2023-01-11T15:53:50.817Z,100.00
2023-01-11T15:56:56.872Z,100.00
2023-01-11T16:00:16.165Z,100.00
2023-01-11T16:03:32.453Z,100.00
2023-01-11T16:06:37.336Z,100.00
2023-01-11T16:09:27.477Z,100.00
2023-01-11T16:12:30.519Z,100.00
2023-01-11T16:15:23.603Z,100.00
2023-01-11T16:18:27.759Z,100.00
2023-01-11T16:21:27.034Z,100.00
2023-01-11T16:24:20.528Z,100.00
2023-01-11T16:27:09.381Z,100.00
2023-01-11T16:29:57.041Z,100.00
2023-01-11T16:32:44.123Z,100.00
2023-01-11T16:35:31.255Z,100.00
2023-01-11T16:38:21.778Z,100.00
2023-01-11T16:41:13.490Z,100.00
2023-01-11T16:44:04.897Z,100.00
2023-01-11T16:47:06.987Z,100.00
2023-01-11T16:50:20.698Z,100.00
2023-01-11T16:53:14.939Z,100.00
2023-01-11T16:56:23.812Z,100.00
2023-01-11T16:59:13.931Z,100.00
2023-01-11T17:02:05.327Z,100.00
2023-01-11T17:04:54.330Z,100.00
2023-01-11T17:07:41.476Z,100.00
2023-01-11T17:10:30.087Z,100.00
2023-01-11T17:13:51.000Z,100.00
2023-01-11T17:16:50.443Z,100.00
2023-01-11T17:19:51.182Z,100.00
2023-01-11T17:22:38.517Z,100.00
2023-01-11T17:25:43.805Z,100.00
2023-01-11T17:28:31.809Z,100.00
2023-01-11T17:31:26.584Z,100.00
2023-01-11T17:34:26.022Z,100.00
2023-01-11T17:37:15.269Z,100.00
2023-01-11T17:40:03.327Z,100.00
2023-01-11T17:43:09.547Z,100.00
2023-01-11T17:45:58.827Z,100.00
2023-01-11T17:48:57.256Z,100.00
2023-01-11T17:51:44.361Z,100.00
2023-01-11T17:54:31.491Z,100.00
2023-01-11T17:57:22.166Z,100.00
2023-01-11T18:00:26.244Z,100.00
2023-01-11T18:03:15.927Z,100.00
2023-01-11T18:06:42.601Z,100.00
2023-01-11T18:09:32.720Z,100.00
2023-01-11T18:12:39.405Z,100.00
2023-01-11T18:15:32.598Z,100.00
2023-01-11T18:18:42.301Z,100.00
2023-01-11T18:21:41.104Z,100.00
2023-01-11T18:24:35.149Z,100.00
2023-01-11T18:27:28.383Z,100.00
2023-01-11T18:30:31.046Z,100.00
2023-01-11T18:33:20.610Z,100.00
2023-01-11T18:36:20.285Z,100.00
2023-01-11T18:39:12.455Z,100.00
2023-01-11T18:42:09.799Z,100.00
2023-01-11T18:44:57.051Z,100.00
2023-01-11T18:47:44.594Z,100.00
2023-01-11T18:50:32.166Z,100.00
2023-01-11T18:53:19.536Z,100.00
2023-01-11T18:56:06.990Z,100.00
2023-01-11T18:58:54.385Z,100.00
2023-01-11T19:01:54.529Z,100.00
2023-01-11T19:04:46.939Z,100.00
2023-01-11T19:07:34.909Z,100.00
2023-01-11T19:10:23.449Z,100.00
2023-01-11T19:13:11.030Z,100.00
2023-01-11T19:16:02.108Z,100.00
2023-01-11T19:18:49.521Z,100.00
2023-01-11T19:21:36.768Z,100.00
2023-01-11T19:24:24.372Z,100.00
2023-01-11T19:27:13.744Z,100.00
2023-01-11T19:30:03.245Z,100.00
2023-01-11T19:32:53.380Z,100.00
2023-01-11T19:35:42.057Z,100.00
2023-01-11T19:38:29.264Z,100.00
2023-01-11T19:41:18.196Z,100.00
2023-01-11T19:44:05.728Z,100.00
2023-01-11T19:47:09.794Z,100.00
2023-01-11T19:50:00.102Z,100.00
2023-01-11T19:52:49.810Z,100.00
2023-01-11T19:55:38.546Z,100.00
2023-01-11T19:58:29.071Z,100.00
2023-01-11T20:01:19.911Z,100.00
2023-01-11T20:04:07.227Z,100.00
2023-01-11T20:06:55.605Z,100.00
2023-01-11T20:09:42.988Z,100.00
2023-01-11T20:12:30.412Z,100.00
2023-01-11T20:15:17.779Z,100.00
2023-01-11T20:18:05.350Z,100.00
2023-01-11T20:20:57.310Z,100.00
2023-01-11T20:23:45.114Z,100.00
2023-01-11T20:26:34.230Z,100.00
2023-01-11T20:29:22.233Z,100.00
2023-01-11T20:32:35.002Z,100.00
2023-01-11T20:35:18.397Z,100.00
2023-01-11T20:38:05.811Z,100.00
2023-01-11T20:40:53.549Z,100.00
2023-01-11T20:43:40.825Z,100.00
2023-01-11T20:46:30.086Z,100.00
2023-01-11T20:49:19.058Z,100.00
2023-01-11T20:52:06.195Z,100.00
2023-01-11T20:54:53.279Z,100.00
2023-01-11T20:57:40.863Z,100.00
2023-01-11T21:00:29.733Z,100.00
2023-01-11T21:03:20.104Z,100.00
2023-01-11T21:06:10.136Z,100.00
2023-01-11T21:08:59.216Z,100.00
2023-01-11T21:11:53.226Z,100.00
2023-01-11T21:14:40.304Z,100.00
2023-01-11T21:17:27.363Z,100.00
2023-01-11T21:20:14.601Z,100.00
2023-01-11T21:23:03.120Z,100.00
2023-01-11T21:25:50.212Z,100.00
2023-01-11T21:28:37.551Z,100.00
2023-01-11T21:31:25.546Z,100.00
2023-01-11T21:34:13.351Z,100.00
2023-01-11T21:37:00.475Z,100.00
2023-01-11T21:39:47.590Z,100.00
2023-01-11T21:42:34.625Z,100.00
2023-01-11T21:45:21.725Z,100.00
2023-01-11T21:48:09.130Z,100.00
2023-01-11T21:50:56.377Z,100.00
2023-01-11T21:53:43.556Z,100.00
2023-01-11T21:56:30.706Z,100.00
2023-01-11T21:59:20.536Z,100.00
2023-01-11T22:02:09.183Z,100.00
2023-01-11T22:04:57.852Z,100.00
2023-01-11T22:07:44.924Z,100.00
2023-01-11T22:10:33.428Z,100.00
2023-01-11T22:13:20.475Z,100.00
2023-01-11T22:16:11.168Z,100.00
2023-01-11T22:19:00.128Z,100.00
2023-01-11T22:21:47.427Z,100.00
2023-01-11T22:24:34.483Z,100.00
2023-01-11T22:27:21.615Z,100.00
2023-01-11T22:30:09.341Z,100.00
2023-01-11T22:32:56.448Z,100.00
2023-01-11T22:35:54.355Z,100.00
2023-01-11T22:38:42.217Z,100.00
2023-01-11T22:41:29.366Z,100.00
2023-01-11T22:44:18.240Z,100.00
2023-01-11T22:47:05.466Z,100.00
2023-01-11T22:49:54.411Z,100.00
2023-01-11T22:52:41.845Z,100.00
2023-01-11T22:55:28.945Z,100.00
2023-01-11T22:58:16.061Z,100.00
2023-01-11T23:01:15.809Z,100.00
2023-01-11T23:04:04.359Z,100.00
2023-01-11T23:06:51.421Z,100.00
2023-01-11T23:09:38.468Z,100.00
2023-01-11T23:12:43.994Z,100.00
2023-01-11T23:15:31.321Z,100.00
2023-01-11T23:18:18.484Z,100.00
2023-01-11T23:21:05.781Z,100.00
2023-01-11T23:23:53.538Z,100.00
2023-01-11T23:26:40.799Z,100.00
2023-01-11T23:29:27.945Z,100.00
2023-01-11T23:32:15.041Z,100.00
2023-01-11T23:35:02.188Z,100.00
2023-01-11T23:37:50.501Z,100.00
2023-01-11T23:40:56.201Z,100.00
2023-01-11T23:43:43.276Z,100.00
2023-01-11T23:46:49.442Z,100.00
2023-01-11T23:49:36.998Z,100.00
2023-01-11T23:52:26.089Z,100.00
2023-01-11T23:55:14.125Z,100.00
2023-01-11T23:58:10.453Z,100.00
